createdAt,value
2018-07-26T00:00:28.832Z,2.77
2018-07-26T00:02:57.648Z,3.10
2018-07-26T00:05:26.119Z,2.92
2018-07-26T00:07:54.373Z,3.65
2018-07-26T00:10:22.669Z,2.80
2018-07-26T00:12:50.706Z,3.20
2018-07-26T00:15:19.120Z,3.33
2018-07-26T00:17:47.231Z,2.80
2018-07-26T00:20:15.574Z,3.20
2018-07-26T00:22:44.164Z,3.20
2018-07-26T00:25:12.452Z,3.27
2018-07-26T00:27:40.521Z,3.05
2018-07-26T00:30:08.792Z,3.25
2018-07-26T00:32:37.994Z,3.20
2018-07-26T00:35:06.025Z,3.40
2018-07-26T00:37:34.277Z,3.03
2018-07-26T00:40:02.503Z,3.20
2018-07-26T00:42:30.742Z,3.00
2018-07-26T00:44:59.261Z,3.40
2018-07-26T00:47:27.346Z,3.22
2018-07-26T00:49:55.653Z,3.37
2018-07-26T00:52:24.380Z,3.50
2018-07-26T00:54:53.026Z,3.12
2018-07-26T00:57:21.125Z,3.67
2018-07-26T00:59:49.820Z,3.10
2018-07-26T01:02:18.178Z,3.20
2018-07-26T01:04:46.654Z,3.40
2018-07-26T01:07:14.983Z,3.50
2018-07-26T01:09:43.141Z,3.60
2018-07-26T01:12:11.201Z,3.47
2018-07-26T01:14:39.489Z,3.87
2018-07-26T01:17:08.498Z,3.40
2018-07-26T01:19:36.577Z,3.33
2018-07-26T01:22:05.028Z,3.40
2018-07-26T01:24:33.331Z,3.45
2018-07-26T01:27:02.685Z,3.70
2018-07-26T01:29:31.009Z,3.45
2018-07-26T01:31:59.839Z,3.50
2018-07-26T01:34:27.842Z,3.40
2018-07-26T01:36:56.658Z,3.27
2018-07-26T01:39:25.247Z,3.30
2018-07-26T01:41:53.610Z,3.40
2018-07-26T01:44:23.061Z,3.70
2018-07-26T01:46:51.512Z,3.33
2018-07-26T01:49:20.285Z,3.20
2018-07-26T01:51:49.366Z,3.60
2018-07-26T01:54:17.743Z,3.40
2018-07-26T01:56:46.061Z,3.40
2018-07-26T01:59:14.094Z,3.20
2018-07-26T02:01:42.698Z,3.08
2018-07-26T02:04:10.965Z,3.40
2018-07-26T02:06:39.058Z,3.60
2018-07-26T02:09:09.545Z,3.57
2018-07-26T02:11:37.710Z,3.87
2018-07-26T02:14:06.116Z,3.70
2018-07-26T02:16:34.489Z,3.50
2018-07-26T02:19:03.509Z,3.90
2018-07-26T02:21:32.130Z,3.90
2018-07-26T02:24:00.345Z,3.90
2018-07-26T02:26:28.565Z,3.55
2018-07-26T02:28:56.705Z,3.70
2018-07-26T02:31:25.406Z,3.70
2018-07-26T02:33:53.459Z,3.55
2018-07-26T02:36:21.486Z,3.40
2018-07-26T02:38:49.717Z,3.40
2018-07-26T02:41:18.203Z,3.40
2018-07-26T02:43:47.237Z,3.60
2018-07-26T02:46:15.602Z,3.70
2018-07-26T02:48:44.149Z,3.30
2018-07-26T02:51:12.745Z,3.50
2018-07-26T02:53:40.787Z,3.50
2018-07-26T02:56:09.201Z,3.80
2018-07-26T02:58:37.185Z,3.92
2018-07-26T03:01:05.226Z,3.50
2018-07-26T03:03:33.519Z,3.63
2018-07-26T03:06:01.898Z,3.42
2018-07-26T03:08:30.682Z,3.83
2018-07-26T03:10:58.767Z,3.40
2018-07-26T03:13:27.029Z,3.70
2018-07-26T03:15:55.318Z,3.90
2018-07-26T03:18:23.478Z,3.47
2018-07-26T03:20:52.053Z,4.12
2018-07-26T03:23:20.151Z,4.13
2018-07-26T03:25:48.141Z,3.83
2018-07-26T03:28:16.327Z,3.70
2018-07-26T03:30:44.769Z,3.60
2018-07-26T03:33:12.796Z,4.00
2018-07-26T03:35:41.097Z,3.80
2018-07-26T03:38:10.092Z,4.30
2018-07-26T03:40:38.589Z,3.67
2018-07-26T03:43:06.694Z,3.90
2018-07-26T03:45:35.374Z,4.12
2018-07-26T03:48:03.594Z,3.97
2018-07-26T03:50:31.897Z,3.40
2018-07-26T03:52:59.987Z,3.80
2018-07-26T03:55:28.386Z,3.57
2018-07-26T03:57:56.758Z,3.80
2018-07-26T04:00:25.037Z,3.60
2018-07-26T04:02:53.506Z,4.00
2018-07-26T04:05:21.801Z,3.55
2018-07-26T04:07:49.782Z,3.80
2018-07-26T04:10:17.970Z,3.80
2018-07-26T04:12:46.066Z,3.47
2018-07-26T04:15:14.353Z,3.60
2018-07-26T04:17:42.593Z,3.60
2018-07-26T04:20:10.594Z,3.98
2018-07-26T04:22:39.406Z,3.70
2018-07-26T04:25:08.291Z,3.75
2018-07-26T04:27:36.794Z,3.77
2018-07-26T04:30:05.670Z,3.50
2018-07-26T04:32:33.762Z,3.50
2018-07-26T04:35:02.052Z,3.60
2018-07-26T04:37:30.063Z,3.70
2018-07-26T04:40:00.011Z,3.50
2018-07-26T04:42:28.589Z,3.50
2018-07-26T04:44:57.337Z,4.00
2018-07-26T04:47:25.870Z,3.60
2018-07-26T04:49:54.519Z,3.60
2018-07-26T04:52:22.921Z,3.10
2018-07-26T04:54:51.407Z,3.20
2018-07-26T04:57:20.927Z,3.40
2018-07-26T04:59:49.226Z,3.80
2018-07-26T05:02:18.285Z,3.60
2018-07-26T05:04:47.049Z,3.37
2018-07-26T05:07:15.458Z,3.45
2018-07-26T05:09:43.943Z,3.00
2018-07-26T05:12:12.421Z,3.52
2018-07-26T05:14:40.688Z,3.80
2018-07-26T05:17:08.918Z,5.40
2018-07-26T05:19:37.321Z,3.80
2018-07-26T05:22:05.829Z,3.57
2018-07-26T05:24:33.917Z,3.50
2018-07-26T05:27:02.203Z,3.77
2018-07-26T05:29:30.741Z,3.40
2018-07-26T05:31:59.065Z,7.30
2018-07-26T05:34:27.352Z,6.30
2018-07-26T05:36:56.251Z,4.00
2018-07-26T05:39:24.377Z,3.97
2018-07-26T05:41:53.440Z,3.27
2018-07-26T05:44:22.062Z,3.35
2018-07-26T05:46:50.297Z,3.00
2018-07-26T05:49:18.577Z,3.20
2018-07-26T05:51:46.593Z,4.90
2018-07-26T05:54:15.065Z,3.87
2018-07-26T05:56:43.721Z,3.27
2018-07-26T05:59:12.029Z,3.47
2018-07-26T06:01:40.518Z,3.20
2018-07-26T06:04:09.103Z,3.17
2018-07-26T06:06:37.550Z,3.20
2018-07-26T06:09:07.785Z,3.00
2018-07-26T06:11:36.049Z,3.00
2018-07-26T06:14:05.261Z,2.70
2018-07-26T06:16:33.517Z,3.60
2018-07-26T06:19:01.523Z,2.80
2018-07-26T06:21:30.187Z,2.70
2018-07-26T06:23:59.051Z,2.58
2018-07-26T06:26:27.446Z,2.80
2018-07-26T06:28:55.934Z,2.85
2018-07-26T06:31:24.341Z,2.77
2018-07-26T06:33:53.057Z,2.40
2018-07-26T06:36:21.170Z,2.90
2018-07-26T06:38:49.481Z,2.77
2018-07-26T06:41:18.233Z,2.70
2018-07-26T06:43:46.750Z,2.80
2018-07-26T06:46:15.414Z,3.40
2018-07-26T06:48:43.815Z,2.70
2018-07-26T06:51:12.607Z,3.00
2018-07-26T06:53:40.998Z,2.98
2018-07-26T06:56:09.917Z,3.10
2018-07-26T06:58:38.445Z,2.70
2018-07-26T07:01:06.544Z,2.80
2018-07-26T07:03:34.926Z,3.00
2018-07-26T07:06:03.029Z,2.77
2018-07-26T07:08:31.111Z,3.00
2018-07-26T07:10:59.435Z,2.70
2018-07-26T07:13:27.921Z,2.50
2018-07-26T07:15:56.472Z,2.20
2018-07-26T07:18:25.170Z,2.50
2018-07-26T07:20:53.777Z,2.72
2018-07-26T07:23:22.358Z,2.70
2018-07-26T07:25:50.697Z,2.80
2018-07-26T07:28:18.787Z,2.30
2018-07-26T07:30:47.593Z,2.40
2018-07-26T07:33:15.885Z,2.20
2018-07-26T07:35:44.358Z,2.33
2018-07-26T07:40:47.853Z,2.05
2018-07-26T07:43:16.034Z,2.25
2018-07-26T07:45:44.122Z,2.00
2018-07-26T07:48:13.434Z,2.12
2018-07-26T07:50:41.734Z,2.25
2018-07-26T07:53:09.957Z,1.80
2018-07-26T07:55:38.333Z,2.30
2018-07-26T07:58:06.738Z,2.40
2018-07-26T08:00:35.224Z,2.00
2018-07-26T08:03:03.793Z,2.00
2018-07-26T08:05:33.100Z,2.10
2018-07-26T08:08:01.135Z,2.00
2018-07-26T08:10:29.440Z,1.80
2018-07-26T08:12:57.774Z,2.20
2018-07-26T08:15:26.625Z,1.93
2018-07-26T08:17:54.649Z,2.22
2018-07-26T08:20:23.582Z,2.75
2018-07-26T08:22:51.586Z,2.37
2018-07-26T08:25:19.826Z,2.50
2018-07-26T08:27:48.164Z,2.30
2018-07-26T08:30:16.491Z,2.50
2018-07-26T08:32:45.074Z,2.60
2018-07-26T08:35:13.398Z,2.40
2018-07-26T08:37:41.734Z,2.58
2018-07-26T08:40:10.026Z,2.80
2018-07-26T08:42:38.209Z,2.40
2018-07-26T08:45:06.238Z,3.00
2018-07-26T08:47:35.440Z,2.40
2018-07-26T08:50:03.782Z,2.92
2018-07-26T08:52:32.505Z,2.60
2018-07-26T08:55:00.890Z,2.90
2018-07-26T08:57:28.927Z,2.70
2018-07-26T08:59:56.917Z,2.90
2018-07-26T09:02:24.933Z,2.80
2018-07-26T09:04:53.101Z,3.37
2018-07-26T09:07:21.281Z,2.92
2018-07-26T09:09:49.363Z,3.60
2018-07-26T09:12:17.369Z,3.20
2018-07-26T09:14:45.482Z,3.10
2018-07-26T09:17:14.395Z,3.27
2018-07-26T09:19:43.074Z,3.40
2018-07-26T09:22:11.154Z,3.30
2018-07-26T09:24:41.570Z,3.08
2018-07-26T09:27:10.783Z,2.80
2018-07-26T09:29:39.285Z,3.90
2018-07-26T09:32:08.016Z,3.50
2018-07-26T09:34:36.542Z,3.00
2018-07-26T09:37:05.591Z,3.05
2018-07-26T09:39:33.938Z,3.22
2018-07-26T09:42:02.164Z,3.33
2018-07-26T09:44:30.600Z,2.80
2018-07-26T09:46:59.180Z,3.12
2018-07-26T09:49:27.691Z,3.12
2018-07-26T09:51:56.528Z,3.10
2018-07-26T09:54:24.541Z,3.02
2018-07-26T09:56:53.281Z,3.17
2018-07-26T09:59:21.598Z,3.30
2018-07-26T10:01:50.521Z,3.30
2018-07-26T10:04:18.794Z,3.17
2018-07-26T10:06:47.089Z,2.80
2018-07-26T10:09:16.245Z,3.00
2018-07-26T10:11:44.546Z,3.20
2018-07-26T10:14:12.625Z,3.40
2018-07-26T10:16:40.990Z,3.30
2018-07-26T10:19:09.454Z,3.20
2018-07-26T10:21:37.517Z,3.00
2018-07-26T10:24:06.134Z,2.90
2018-07-26T10:26:34.469Z,2.87
2018-07-26T10:29:03.200Z,3.30
2018-07-26T10:31:31.446Z,3.20
2018-07-26T10:33:59.869Z,3.00
2018-07-26T10:36:28.125Z,3.17
2018-07-26T10:38:56.710Z,3.40
2018-07-26T10:41:24.784Z,2.90
2018-07-26T10:43:52.970Z,3.33
2018-07-26T10:46:21.107Z,2.90
2018-07-26T10:48:49.715Z,2.98
2018-07-26T10:51:17.790Z,3.00
2018-07-26T10:53:45.855Z,2.90
2018-07-26T10:56:14.745Z,2.90
2018-07-26T10:58:43.062Z,2.70
2018-07-26T11:01:11.127Z,2.40
2018-07-26T11:03:39.198Z,2.50
2018-07-26T11:06:07.303Z,2.52
2018-07-26T11:08:35.710Z,2.60
2018-07-26T11:11:04.138Z,2.33
2018-07-26T11:13:32.169Z,3.00
2018-07-26T11:16:00.199Z,2.60
2018-07-26T11:18:28.725Z,2.97
2018-07-26T11:20:56.783Z,2.60
2018-07-26T11:23:25.077Z,2.70
2018-07-26T11:25:53.154Z,2.85
2018-07-26T11:28:21.530Z,2.83
2018-07-26T11:30:49.890Z,2.90
2018-07-26T11:33:18.055Z,2.62
2018-07-26T11:35:46.183Z,2.70
2018-07-26T11:38:14.221Z,2.40
2018-07-26T11:40:42.606Z,2.80
2018-07-26T11:43:10.984Z,2.70
2018-07-26T11:45:39.089Z,2.60
2018-07-26T11:48:07.165Z,2.77
2018-07-26T11:50:35.601Z,2.60
2018-07-26T11:53:04.089Z,2.75
2018-07-26T11:55:32.538Z,3.20
2018-07-26T11:58:00.570Z,2.90
2018-07-26T12:00:28.624Z,2.90
2018-07-26T12:02:56.800Z,2.83
2018-07-26T12:05:25.998Z,2.67
2018-07-26T12:07:54.189Z,2.90
2018-07-26T12:10:22.430Z,2.80
2018-07-26T12:12:50.997Z,3.10
2018-07-26T12:15:19.362Z,2.70
2018-07-26T12:17:48.439Z,3.22
2018-07-26T12:20:16.773Z,2.90
2018-07-26T12:22:45.302Z,2.70
2018-07-26T12:25:13.781Z,2.90
2018-07-26T12:27:41.866Z,2.80
2018-07-26T12:30:10.019Z,2.70
2018-07-26T12:32:38.372Z,2.58
2018-07-26T12:35:06.958Z,3.20
2018-07-26T12:37:35.535Z,2.70
2018-07-26T12:40:03.726Z,2.92
2018-07-26T12:42:31.822Z,2.98
2018-07-26T12:45:00.882Z,3.37
2018-07-26T12:47:29.911Z,3.27
2018-07-26T12:49:58.574Z,3.10
2018-07-26T12:52:26.943Z,3.92
2018-07-26T12:54:55.343Z,3.55
2018-07-26T12:57:23.813Z,3.87
2018-07-26T12:59:51.946Z,3.00
2018-07-26T13:02:19.977Z,3.33
2018-07-26T13:04:48.326Z,3.20
2018-07-26T13:07:16.439Z,3.50
2018-07-26T13:09:45.803Z,3.42
2018-07-26T13:12:14.297Z,3.10
2018-07-26T13:14:42.508Z,3.10
2018-07-26T13:17:10.968Z,3.50
2018-07-26T13:19:39.146Z,3.40
2018-07-26T13:22:07.904Z,3.80
2018-07-26T13:24:36.476Z,3.30
2018-07-26T13:27:06.081Z,3.20
2018-07-26T13:29:35.296Z,3.05
2018-07-26T13:32:03.950Z,3.07
2018-07-26T13:34:32.900Z,3.10
2018-07-26T13:37:02.448Z,3.00
2018-07-26T13:39:32.295Z,3.10
2018-07-26T13:42:02.652Z,3.60
2018-07-26T13:44:34.705Z,2.87
2018-07-26T13:47:05.441Z,3.00
2018-07-26T13:49:35.401Z,3.23
2018-07-26T13:52:06.069Z,3.00
2018-07-26T13:54:37.387Z,3.42
2018-07-26T13:57:07.453Z,3.30
2018-07-26T13:59:38.908Z,3.52
2018-07-26T14:02:11.298Z,3.20
2018-07-26T14:04:41.347Z,3.20
2018-07-26T14:07:11.540Z,3.20
2018-07-26T14:09:41.229Z,3.40
2018-07-26T14:12:12.548Z,3.50
2018-07-26T14:14:44.236Z,3.40
2018-07-26T14:17:12.848Z,3.30
2018-07-26T14:19:42.751Z,3.30
2018-07-26T14:22:11.732Z,3.62
2018-07-26T14:24:40.067Z,3.50
2018-07-26T14:27:08.313Z,3.60
2018-07-26T14:29:36.492Z,3.15
2018-07-26T14:32:04.746Z,2.95
2018-07-26T14:34:33.714Z,3.08
2018-07-26T14:37:01.709Z,3.02
2018-07-26T14:39:30.411Z,2.90
2018-07-26T14:41:58.433Z,3.05
2018-07-26T14:44:26.619Z,3.00
2018-07-26T14:46:55.294Z,3.00
2018-07-26T14:49:24.402Z,2.80
2018-07-26T14:51:52.805Z,2.80
2018-07-26T14:54:21.048Z,3.00
2018-07-26T14:56:49.057Z,3.10
2018-07-26T14:59:17.907Z,3.20
2018-07-26T15:01:46.702Z,3.30
2018-07-26T15:04:15.107Z,2.90
2018-07-26T15:06:43.376Z,3.60
2018-07-26T15:09:11.465Z,3.30
2018-07-26T15:11:39.583Z,3.10
2018-07-26T15:14:07.636Z,3.05
2018-07-26T15:16:35.946Z,3.20
2018-07-26T15:19:03.961Z,3.13
2018-07-26T15:21:31.990Z,3.35
2018-07-26T15:24:00.008Z,2.95
2018-07-26T15:26:28.541Z,3.17
2018-07-26T15:28:57.017Z,3.30
2018-07-26T15:31:25.816Z,3.63
2018-07-26T15:33:54.207Z,3.90
2018-07-26T15:36:23.675Z,5.70
2018-07-26T15:38:52.282Z,3.40
2018-07-26T15:41:20.783Z,6.25
2018-07-26T15:43:49.142Z,3.92
2018-07-26T15:46:17.250Z,2.90
2018-07-26T15:48:45.381Z,3.20
2018-07-26T15:51:13.556Z,2.80
2018-07-26T15:53:42.867Z,2.90
2018-07-26T15:56:10.909Z,3.08
2018-07-26T15:58:39.209Z,3.10
2018-07-26T16:01:07.897Z,3.00
2018-07-26T16:03:36.083Z,2.80
2018-07-26T16:06:04.539Z,2.80
2018-07-26T16:08:32.579Z,3.40
2018-07-26T16:11:00.753Z,2.95
2018-07-26T16:13:28.775Z,3.00
2018-07-26T16:15:56.857Z,2.90
2018-07-26T16:18:25.142Z,3.27
2018-07-26T16:20:53.527Z,4.62
2018-07-26T16:23:21.603Z,8.65
2018-07-26T16:25:49.951Z,3.50
2018-07-26T16:28:19.279Z,2.70
2018-07-26T16:30:48.031Z,3.15
2018-07-26T16:33:16.594Z,2.87
2018-07-26T16:35:45.125Z,2.90
2018-07-26T16:38:13.456Z,2.90
2018-07-26T16:40:41.889Z,2.90
2018-07-26T16:43:10.445Z,2.85
2018-07-26T16:45:38.472Z,3.00
2018-07-26T16:48:06.543Z,2.90
2018-07-26T16:50:34.577Z,2.70
2018-07-26T16:53:02.909Z,3.40
2018-07-26T16:55:31.354Z,3.45
2018-07-26T16:57:59.441Z,3.20
2018-07-26T17:00:27.921Z,3.50
2018-07-26T17:02:56.466Z,3.08
2018-07-26T17:05:25.032Z,3.10
2018-07-26T17:07:53.046Z,3.05
2018-07-26T17:10:21.378Z,3.20
2018-07-26T17:12:49.421Z,3.02
2018-07-26T17:15:18.161Z,3.00
2018-07-26T17:17:46.227Z,3.50
2018-07-26T17:20:14.628Z,3.45
2018-07-26T17:22:43.186Z,3.00
2018-07-26T17:25:12.291Z,3.20
2018-07-26T17:27:40.349Z,3.10
2018-07-26T17:30:08.510Z,3.40
2018-07-26T17:32:36.683Z,3.20
2018-07-26T17:35:05.286Z,3.20
2018-07-26T17:37:33.323Z,3.10
2018-07-26T17:40:01.508Z,3.35
2018-07-26T17:42:29.606Z,3.10
2018-07-26T17:44:58.420Z,3.17
2018-07-26T17:47:26.780Z,3.10
2018-07-26T17:49:55.552Z,3.20
2018-07-26T17:52:24.866Z,3.58
2018-07-26T17:54:53.086Z,3.40
2018-07-26T17:57:21.177Z,3.20
2018-07-26T17:59:49.601Z,3.60
2018-07-26T18:02:17.941Z,3.70
2018-07-26T18:04:46.033Z,3.90
2018-07-26T18:07:14.223Z,3.50
2018-07-26T18:09:42.411Z,2.95
2018-07-26T18:12:10.770Z,3.52
2018-07-26T18:14:38.945Z,3.73
2018-07-26T18:17:07.295Z,3.80
2018-07-26T18:19:35.570Z,3.90
2018-07-26T18:22:03.626Z,3.70
2018-07-26T18:24:31.886Z,3.70
2018-07-26T18:27:00.218Z,3.72
2018-07-26T18:29:28.249Z,3.90
2018-07-26T18:31:56.342Z,3.80
2018-07-26T18:34:24.396Z,3.65
2018-07-26T18:36:52.968Z,4.10
2018-07-26T18:39:21.237Z,4.10
2018-07-26T18:41:49.571Z,4.40
2018-07-26T18:44:17.842Z,4.15
2018-07-26T18:46:46.089Z,4.05
2018-07-26T18:49:14.198Z,3.80
2018-07-26T18:51:42.221Z,4.20
2018-07-26T18:54:10.291Z,4.40
2018-07-26T18:56:38.565Z,4.00
2018-07-26T18:59:06.930Z,4.50
2018-07-26T19:01:35.019Z,4.30
2018-07-26T19:04:03.135Z,4.20
2018-07-26T19:06:31.494Z,4.00
2018-07-26T19:08:59.780Z,4.40
2018-07-26T19:11:27.813Z,4.40
2018-07-26T19:13:56.362Z,4.17
2018-07-26T19:16:25.054Z,4.08
2018-07-26T19:18:53.166Z,4.20
2018-07-26T19:21:21.606Z,4.50
2018-07-26T19:23:50.268Z,4.35
2018-07-26T19:26:18.672Z,4.70
2018-07-26T19:28:47.055Z,4.60
2018-07-26T19:31:15.692Z,4.40
2018-07-26T19:33:44.217Z,4.50
2018-07-26T19:36:12.527Z,5.00
2018-07-26T19:38:40.912Z,4.40
2018-07-26T19:41:09.727Z,4.35
2018-07-26T19:43:38.344Z,4.72
2018-07-26T19:46:07.459Z,4.47
2018-07-26T19:48:35.754Z,4.70
2018-07-26T19:51:04.104Z,4.83
2018-07-26T19:53:32.151Z,4.87
2018-07-26T19:56:00.428Z,4.53
2018-07-26T19:58:28.704Z,5.15
2018-07-26T20:00:57.325Z,5.03
2018-07-26T20:03:25.374Z,4.50
2018-07-26T20:05:53.657Z,4.90
2018-07-26T20:08:21.782Z,4.95
2018-07-26T20:10:50.109Z,4.45
2018-07-26T20:13:18.622Z,4.40
2018-07-26T20:15:47.106Z,4.70
2018-07-26T20:18:15.154Z,4.70
2018-07-26T20:20:43.738Z,4.92
2018-07-26T20:23:11.788Z,4.80
2018-07-26T20:25:42.112Z,5.30
2018-07-26T20:28:11.023Z,5.17
2018-07-26T20:30:39.505Z,4.80
2018-07-26T20:33:07.644Z,5.00
2018-07-26T20:35:36.357Z,4.87
2018-07-26T20:38:04.547Z,4.90
2018-07-26T20:40:33.367Z,4.75
2018-07-26T20:43:01.557Z,4.50
2018-07-26T20:45:29.981Z,4.77
2018-07-26T20:47:58.281Z,5.05
2018-07-26T20:50:26.494Z,4.70
2018-07-26T20:52:55.017Z,5.40
2018-07-26T20:55:23.818Z,4.60
2018-07-26T20:57:52.003Z,5.10
2018-07-26T21:00:20.490Z,5.08
2018-07-26T21:02:49.040Z,4.85
2018-07-26T21:05:17.055Z,4.72
2018-07-26T21:07:45.037Z,5.15
2018-07-26T21:10:13.110Z,6.53
2018-07-26T21:12:41.158Z,6.03
2018-07-26T21:15:10.339Z,5.30
2018-07-26T21:17:38.425Z,4.90
2018-07-26T21:20:06.821Z,4.58
2018-07-26T21:22:35.674Z,5.10
2018-07-26T21:25:04.294Z,4.90
2018-07-26T21:27:33.218Z,4.90
2018-07-26T21:30:01.926Z,5.40
2018-07-26T21:32:30.298Z,4.90
2018-07-26T21:34:59.213Z,5.70
2018-07-26T21:37:27.481Z,6.08
2018-07-26T21:39:56.170Z,5.50
2018-07-26T21:42:24.658Z,5.40
2018-07-26T21:44:52.749Z,5.47
2018-07-26T21:47:21.354Z,5.40
2018-07-26T21:49:49.608Z,5.20
2018-07-26T21:52:18.270Z,5.60
2018-07-26T21:54:46.388Z,5.60
2018-07-26T21:57:14.473Z,5.35
2018-07-26T21:59:42.756Z,4.87
2018-07-26T22:02:12.243Z,5.10
2018-07-26T22:04:40.649Z,5.70
2018-07-26T22:07:08.727Z,5.92
2018-07-26T22:09:37.334Z,5.53
2018-07-26T22:12:05.374Z,5.60
2018-07-26T22:14:33.438Z,4.80
2018-07-26T22:17:01.723Z,5.70
2018-07-26T22:19:29.754Z,5.10
2018-07-26T22:21:58.117Z,4.80
2018-07-26T22:24:26.796Z,5.40
2018-07-26T22:26:55.313Z,5.20
2018-07-26T22:29:23.669Z,5.20
2018-07-26T22:31:51.981Z,5.50
2018-07-26T22:34:20.482Z,5.40
2018-07-26T22:36:48.517Z,5.55
2018-07-26T22:39:16.927Z,5.50
2018-07-26T22:41:45.252Z,5.03
2018-07-26T22:44:13.758Z,5.42
2018-07-26T22:46:41.967Z,5.10
2018-07-26T22:49:10.596Z,5.30
2018-07-26T22:51:38.768Z,5.37
2018-07-26T22:54:07.097Z,5.03
2018-07-26T22:56:35.669Z,5.40
2018-07-26T22:59:04.738Z,5.25
2018-07-26T23:01:32.769Z,5.40
2018-07-26T23:04:01.240Z,5.10
2018-07-26T23:06:29.841Z,5.30
2018-07-26T23:08:57.938Z,6.30
2018-07-26T23:11:26.530Z,5.30
2018-07-26T23:13:55.807Z,5.45
2018-07-26T23:16:23.973Z,6.15
2018-07-26T23:18:52.873Z,5.30
2018-07-26T23:21:21.170Z,4.87
2018-07-26T23:23:49.181Z,5.28
2018-07-26T23:26:17.250Z,5.60
2018-07-26T23:28:45.770Z,6.20
2018-07-26T23:31:14.261Z,5.50
2018-07-26T23:33:43.139Z,5.78
2018-07-26T23:36:11.838Z,5.90
2018-07-26T23:38:41.246Z,5.55
2018-07-26T23:41:09.431Z,5.87
2018-07-26T23:43:38.818Z,5.80
2018-07-26T23:46:07.246Z,5.90
2018-07-26T23:48:35.279Z,5.70
2018-07-26T23:51:03.459Z,5.47
2018-07-26T23:53:32.333Z,5.60
2018-07-26T23:56:01.030Z,5.62
2018-07-26T23:58:29.058Z,5.40
